Time;durP1;ratioP1;P1;durP2;ratioP2;P2;SDS_P1;SDS_P2;PMS_P1;PMS_P2;Temp;Humidity;BMP_temperature;BMP_pressure;BME280_temperature;BME280_humidity;BME280_pressure;Samples;Min_cycle;Max_cycle;Signal;HPM_P1;HPM_P2
2023/05/06 00:02:00;;;;;;;12.32;9.85;;;;;;;11.54;80.60;95175.25;4998011;28;20809;-67
2023/05/06 00:04:27;;;;;;;12.90;10.32;;;;;;;11.54;80.47;95172.72;4998323;28;20231;-66
2023/05/06 00:06:55;;;;;;;10.52;9.52;;;;;;;11.59;79.78;95175.09;4996614;28;20210;-67
2023/05/06 00:09:22;;;;;;;10.35;9.35;;;;;;;11.48;80.51;95178.00;4995925;28;20212;-67
2023/05/06 00:11:49;;;;;;;12.68;9.80;;;;;;;11.42;80.71;95179.94;4997282;28;20215;-67
2023/05/06 00:14:16;;;;;;;11.43;9.00;;;;;;;11.32;80.60;95176.91;4997648;28;20208;-67
2023/05/06 00:16:44;;;;;;;12.63;10.20;;;;;;;11.23;80.77;95177.22;4996361;28;20298;-67
2023/05/06 00:19:11;;;;;;;10.55;9.35;;;;;;;11.09;80.71;95159.88;4995569;28;20214;-65
2023/05/06 00:21:38;;;;;;;9.80;8.95;;;;;;;11.12;80.70;95166.59;4996819;28;20362;-67
2023/05/06 00:24:05;;;;;;;12.65;9.68;;;;;;;11.11;80.52;95167.47;4998642;28;20357;-67
2023/05/06 00:26:31;;;;;;;10.13;8.85;;;;;;;11.17;80.39;95167.22;4998922;28;20207;-67
2023/05/06 00:28:58;;;;;;;11.20;10.15;;;;;;;11.17;80.18;95167.22;4998643;28;20784;-66
2023/05/06 00:31:25;;;;;;;15.20;10.65;;;;;;;11.14;80.27;95167.34;4999336;28;22314;-67
2023/05/06 00:33:53;;;;;;;14.82;10.48;;;;;;;11.03;81.08;95159.25;4995681;28;20748;-66
2023/05/06 00:36:19;;;;;;;10.68;9.68;;;;;;;11.00;81.10;95164.44;4996212;28;20303;-66
2023/05/06 00:38:46;;;;;;;10.50;9.50;;;;;;;10.93;81.11;95162.97;4996135;28;20208;-67
2023/05/06 00:41:13;;;;;;;10.85;9.90;;;;;;;10.95;80.99;95163.75;4997541;28;20658;-65
2023/05/06 00:43:39;;;;;;;13.57;10.32;;;;;;;10.89;81.17;95168.16;4995246;28;20219;-65
2023/05/06 00:46:09;;;;;;;11.68;10.52;;;;;;;10.87;80.95;95164.88;4997198;28;20325;-66
2023/05/06 00:48:36;;;;;;;11.05;9.98;;;;;;;10.82;81.25;95165.88;4995297;28;20211;-65
2023/05/06 00:51:05;;;;;;;10.38;9.48;;;;;;;10.82;81.29;95169.25;4996555;28;20227;-65
2023/05/06 00:53:31;;;;;;;10.80;9.77;;;;;;;10.79;81.65;95164.28;4997432;28;20238;-64
2023/05/06 00:55:58;;;;;;;12.60;10.27;;;;;;;10.80;81.85;95162.56;4995084;28;20207;-65
2023/05/06 00:58:25;;;;;;;13.27;9.88;;;;;;;10.75;81.63;95160.16;4994861;28;20365;-65
2023/05/06 01:00:52;;;;;;;15.13;9.60;;;;;;;10.62;82.46;95168.25;4995974;28;20331;-67
2023/05/06 01:03:18;;;;;;;15.52;11.48;;;;;;;10.61;82.50;95159.78;4994363;28;20206;-66
2023/05/06 01:05:54;;;;;;;14.68;11.95;;;;;;;10.60;82.99;95164.94;4997365;28;20307;-67
2023/05/06 01:08:29;;;;;;;12.02;10.75;;;;;;;10.61;82.82;95159.78;4997598;28;20332;-67
2023/05/06 01:11:02;;;;;;;13.45;11.02;;;;;;;10.63;82.77;95159.75;4995220;28;20349;-67
2023/05/06 01:13:34;;;;;;;12.50;11.20;;;;;;;10.66;82.50;95150.28;4994980;28;21273;-66
2023/05/06 01:16:04;;;;;;;18.95;13.75;;;;;;;10.71;82.75;95156.06;4997935;28;20710;-67
2023/05/06 01:18:32;;;;;;;16.92;13.00;;;;;;;10.72;82.71;95156.88;4996478;28;20228;-66
2023/05/06 01:21:00;;;;;;;14.43;12.27;;;;;;;10.61;82.98;95157.25;4995565;28;20223;-66
2023/05/06 01:23:28;;;;;;;13.63;12.20;;;;;;;10.63;82.91;95155.50;4992590;28;20195;-68
2023/05/06 01:25:55;;;;;;;12.23;10.63;;;;;;;10.52;83.09;95155.81;4992464;28;20296;-65
2023/05/06 01:28:22;;;;;;;15.63;12.40;;;;;;;10.44;83.15;95145.06;4997509;28;20215;-66
2023/05/06 01:31:05;;;;;;;14.43;11.48;;;;;;;10.42;83.09;95143.44;4998214;28;21755;-66
2023/05/06 01:33:37;;;;;;;12.35;11.00;;;;;;;10.44;82.72;95152.69;4997318;28;20286;-67
2023/05/06 01:36:12;;;;;;;11.73;10.60;;;;;;;10.45;82.42;95150.97;4996707;28;20321;-66
2023/05/06 01:38:51;;;;;;;13.30;11.10;;;;;;;10.48;82.58;95161.03;4995065;28;20326;-66
2023/05/06 01:41:19;;;;;;;11.63;9.85;;;;;;;10.45;82.35;95156.88;4996375;28;20313;-67
2023/05/06 01:43:48;;;;;;;13.25;9.68;;;;;;;10.51;82.32;95156.69;4995465;28;20203;-67
2023/05/06 01:46:18;;;;;;;9.90;8.98;;;;;;;10.55;82.00;95149.81;4997204;28;20365;-67
2023/05/06 01:48:46;;;;;;;9.55;8.75;;;;;;;10.54;82.06;95150.69;4995071;28;20571;-65
2023/05/06 01:51:13;;;;;;;12.95;9.70;;;;;;;10.61;82.06;95146.25;4994834;28;20737;-67
2023/05/06 01:53:40;;;;;;;9.85;9.05;;;;;;;10.60;82.60;95153.06;4995632;28;20294;-67
2023/05/06 01:56:08;;;;;;;10.00;9.10;;;;;;;10.61;82.29;95149.63;4993007;28;20334;-66
2023/05/06 01:58:35;;;;;;;11.07;9.32;;;;;;;10.56;82.53;95146.41;4996076;28;21335;-67
2023/05/06 02:01:01;;;;;;;10.13;9.05;;;;;;;10.47;82.76;95150.06;4995049;28;20231;-67
2023/05/06 02:03:28;;;;;;;9.75;8.82;;;;;;;10.42;82.79;95154.44;4995810;28;20203;-68
2023/05/06 02:05:55;;;;;;;9.80;8.70;;;;;;;10.46;83.38;95147.56;4998732;28;20281;-67
2023/05/06 02:08:21;;;;;;;9.23;8.50;;;;;;;10.46;83.26;95142.47;4996441;28;20235;-68
2023/05/06 02:10:48;;;;;;;13.27;9.27;;;;;;;10.38;83.60;95134.28;4995454;28;20322;-68
2023/05/06 02:13:18;;;;;;;17.52;11.18;;;;;;;10.41;83.36;95141.78;4995718;28;20216;-67
2023/05/06 02:15:44;;;;;;;11.65;9.80;;;;;;;10.44;83.61;95139.97;4994836;28;20203;-67
2023/05/06 02:18:11;;;;;;;13.40;11.07;;;;;;;10.40;83.39;95140.97;4996243;28;20211;-65
2023/05/06 02:20:38;;;;;;;13.15;11.70;;;;;;;10.38;83.16;95139.38;4997542;28;20300;-68
2023/05/06 02:23:05;;;;;;;15.23;10.82;;;;;;;10.39;83.42;95146.13;4998116;28;21708;-67
2023/05/06 02:25:31;;;;;;;18.52;10.82;;;;;;;10.41;83.29;95144.31;4995156;28;20276;-67
2023/05/06 02:27:58;;;;;;;18.55;12.68;;;;;;;10.44;83.33;95146.78;4996558;28;20217;-68
2023/05/06 02:30:29;;;;;;;18.48;13.77;;;;;;;10.57;82.56;95156.50;4997432;28;20652;-67
2023/05/06 02:32:56;;;;;;;21.63;15.25;;;;;;;10.54;82.37;95150.69;4998205;28;20211;-66
2023/05/06 02:35:22;;;;;;;22.05;14.60;;;;;;;10.48;82.12;95151.72;4997055;28;20276;-65
2023/05/06 02:37:49;;;;;;;24.70;15.57;;;;;;;10.40;82.84;95145.22;4996440;28;20560;-67
2023/05/06 02:40:16;;;;;;;23.05;15.50;;;;;;;10.39;82.90;95146.13;4996799;28;20206;-64
2023/05/06 02:42:43;;;;;;;23.58;16.13;;;;;;;10.31;82.97;95153.13;4995622;28;20327;-68
2023/05/06 02:45:11;;;;;;;25.25;17.27;;;;;;;10.15;83.43;95152.72;4996879;28;20302;-66
2023/05/06 02:47:39;;;;;;;30.45;16.60;;;;;;;10.16;83.58;95145.06;4995806;28;20291;-66
2023/05/06 02:50:06;;;;;;;29.73;16.48;;;;;;;10.21;82.66;95153.41;4993696;28;20230;-66
2023/05/06 02:52:33;;;;;;;25.15;15.10;;;;;;;10.16;83.10;95145.06;4996002;28;20706;-65
2023/05/06 02:55:00;;;;;;;21.77;15.02;;;;;;;10.18;82.94;95153.47;4995107;28;20195;-66
2023/05/06 02:57:27;;;;;;;25.85;15.05;;;;;;;10.22;83.30;95159.31;4995229;28;20203;-67
2023/05/06 02:59:54;;;;;;;19.25;15.98;;;;;;;10.29;83.01;95159.97;4994165;28;20690;-66
2023/05/06 03:02:21;;;;;;;21.38;14.65;;;;;;;10.28;82.71;95161.69;4995146;28;20384;-66
2023/05/06 03:04:49;;;;;;;22.88;14.50;;;;;;;10.22;82.78;95160.16;4993582;28;20389;-67
2023/05/06 03:07:16;;;;;;;20.00;13.27;;;;;;;10.18;83.33;95162.78;4993779;28;20739;-66
2023/05/06 03:09:43;;;;;;;19.13;14.40;;;;;;;10.06;83.16;95164.00;4994413;28;21238;-66
2023/05/06 03:12:10;;;;;;;32.20;15.45;;;;;;;10.08;83.35;95157.19;4995480;28;20207;-66
2023/05/06 03:14:37;;;;;;;22.52;15.15;;;;;;;10.12;82.96;95165.53;4997283;28;20230;-66
2023/05/06 03:17:04;;;;;;;24.38;15.95;;;;;;;10.13;83.13;95165.50;4996540;28;20207;-67
2023/05/06 03:19:30;;;;;;;32.80;15.05;;;;;;;10.15;82.83;95173.03;4996033;28;20241;-67
2023/05/06 03:21:58;;;;;;;22.08;14.10;;;;;;;10.08;83.12;95159.72;4995783;28;20366;-67
2023/05/06 03:24:25;;;;;;;26.35;14.75;;;;;;;10.14;82.56;95167.16;4996480;28;20378;-66
2023/05/06 03:26:52;;;;;;;21.70;14.05;;;;;;;10.12;82.88;95176.53;4994314;28;20216;-67
2023/05/06 03:29:18;;;;;;;23.13;12.88;;;;;;;10.14;83.09;95177.31;4995300;28;20724;-66
2023/05/06 03:31:45;;;;;;;21.58;15.98;;;;;;;10.14;82.68;95182.41;4994632;28;20346;-67
2023/05/06 03:34:12;;;;;;;25.27;15.68;;;;;;;10.20;82.97;95187.28;4996229;28;20643;-67
2023/05/06 03:36:38;;;;;;;21.52;14.55;;;;;;;10.30;82.20;95187.03;4994499;28;20776;-67
2023/05/06 03:39:06;;;;;;;19.90;13.68;;;;;;;10.38;82.09;95185.09;4993577;28;20255;-67
2023/05/06 03:41:33;;;;;;;25.92;13.77;;;;;;;10.46;82.11;95181.41;4994578;28;20310;-67
2023/05/06 03:44:00;;;;;;;19.40;13.98;;;;;;;10.60;81.66;95188.63;4994919;28;22104;-67
2023/05/06 03:46:26;;;;;;;22.90;14.98;;;;;;;10.69;81.42;95195.09;4993280;28;20326;-67
2023/05/06 03:48:53;;;;;;;16.10;12.95;;;;;;;10.76;81.02;95191.50;4994486;28;20851;-67
2023/05/06 03:51:20;;;;;;;15.73;11.15;;;;;;;10.90;80.49;95192.69;4993039;28;20255;-66
2023/05/06 03:53:46;;;;;;;15.27;10.63;;;;;;;11.03;79.90;95190.59;4994658;28;20327;-66
2023/05/06 03:56:16;;;;;;;11.20;10.00;;;;;;;11.10;79.41;95191.22;4992822;28;20705;-67
2023/05/06 03:58:43;;;;;;;11.13;9.57;;;;;;;11.12;79.04;95194.56;4995628;28;20211;-66
2023/05/06 04:01:10;;;;;;;9.93;8.93;;;;;;;11.20;78.60;95193.41;4995129;28;20301;-67
2023/05/06 04:03:37;;;;;;;9.95;9.05;;;;;;;11.27;78.51;95193.19;4999388;28;20309;-67
2023/05/06 04:06:04;;;;;;;12.57;9.57;;;;;;;11.34;77.39;95204.84;4998661;28;20623;-64
2023/05/06 04:08:30;;;;;;;12.75;10.57;;;;;;;11.33;77.60;95204.00;4998814;28;20223;-67
2023/05/06 04:10:57;;;;;;;11.48;10.45;;;;;;;11.36;77.83;95206.44;4999438;28;20265;-66
2023/05/06 04:13:25;;;;;;;13.38;10.65;;;;;;;11.52;77.25;95210.13;4997728;28;22274;-66
2023/05/06 04:15:52;;;;;;;11.90;10.80;;;;;;;11.62;77.47;95220.00;4997622;28;20261;-66
2023/05/06 04:18:18;;;;;;;10.77;9.63;;;;;;;12.06;77.16;95213.31;5001447;28;20904;-67
2023/05/06 04:20:46;;;;;;;10.23;9.23;;;;;;;12.68;75.97;95205.81;5000725;28;20203;-68
2023/05/06 04:23:13;;;;;;;11.60;10.32;;;;;;;13.30;72.65;95204.19;5000169;28;20238;-67
2023/05/06 04:25:41;;;;;;;11.05;9.93;;;;;;;13.63;71.49;95211.25;4997751;28;20961;-67
2023/05/06 04:28:08;;;;;;;13.18;9.80;;;;;;;14.09;69.69;95205.88;4997743;28;20218;-67
2023/05/06 04:30:36;;;;;;;14.00;10.15;;;;;;;14.34;68.02;95203.03;4999024;28;20253;-67
2023/05/06 04:33:03;;;;;;;10.63;9.30;;;;;;;14.37;67.81;95195.19;4998158;28;20468;-64
2023/05/06 04:35:30;;;;;;;11.85;10.05;;;;;;;14.48;67.02;95208.34;4999612;28;21312;-66
2023/05/06 04:37:57;;;;;;;12.70;10.27;;;;;;;14.54;66.68;95198.66;4998154;28;20207;-67
2023/05/06 04:40:25;;;;;;;14.38;10.13;;;;;;;14.56;66.26;95212.22;4997337;28;20765;-67
2023/05/06 04:42:51;;;;;;;12.93;10.23;;;;;;;14.58;66.60;95212.97;4995572;28;20273;-68
2023/05/06 04:45:19;;;;;;;11.65;10.45;;;;;;;14.57;66.56;95210.47;4996654;28;20211;-67
2023/05/06 04:47:47;;;;;;;10.70;9.70;;;;;;;14.80;65.82;95225.59;4997653;28;20333;-67
2023/05/06 04:50:13;;;;;;;13.75;11.07;;;;;;;15.07;65.21;95220.88;5000526;28;20316;-68
2023/05/06 04:52:40;;;;;;;11.88;10.48;;;;;;;15.31;64.36;95221.41;4998629;28;20213;-66
2023/05/06 04:55:07;;;;;;;16.80;10.90;;;;;;;15.60;63.83;95223.34;4998469;28;22133;-67
2023/05/06 04:57:34;;;;;;;18.10;10.02;;;;;;;15.76;63.38;95225.16;4997909;28;20322;-69
2023/05/06 05:00:01;;;;;;;14.32;10.40;;;;;;;16.24;61.80;95224.31;4998500;28;20290;-67
2023/05/06 05:02:27;;;;;;;11.43;9.77;;;;;;;16.68;60.50;95219.38;4998476;28;20321;-69
2023/05/06 05:04:55;;;;;;;9.68;8.82;;;;;;;17.09;59.36;95223.94;4997841;28;20732;-67
2023/05/06 05:07:22;;;;;;;13.80;10.40;;;;;;;17.26;58.78;95216.97;5000798;28;20287;-68
2023/05/06 05:09:49;;;;;;;10.90;9.82;;;;;;;17.38;57.88;95225.69;4998122;28;20338;-68
2023/05/06 05:12:15;;;;;;;15.52;10.18;;;;;;;17.98;56.76;95234.16;4999140;28;20628;-68
2023/05/06 05:14:42;;;;;;;19.77;9.70;;;;;;;18.96;53.87;95228.97;4998110;28;22438;-68
2023/05/06 05:17:09;;;;;;;10.77;8.88;;;;;;;19.57;52.11;95227.56;5001310;28;20210;-69
2023/05/06 05:19:35;;;;;;;10.55;9.13;;;;;;;19.83;51.13;95228.41;4998025;28;20231;-69
2023/05/06 05:22:03;;;;;;;10.85;9.00;;;;;;;19.59;51.44;95228.28;4997471;28;20311;-68
2023/05/06 05:24:30;;;;;;;8.80;7.85;;;;;;;19.31;51.44;95223.25;5001085;28;20199;-69
2023/05/06 05:26:57;;;;;;;8.73;8.07;;;;;;;18.83;52.83;95229.81;4998821;28;20215;-67
2023/05/06 05:29:24;;;;;;;9.02;8.32;;;;;;;18.57;53.57;95229.66;4999490;28;20294;-68
2023/05/06 05:31:51;;;;;;;20.50;17.42;;;;;;;18.60;53.58;95228.69;4997702;28;20277;-68
2023/05/06 05:34:18;;;;;;;12.40;11.27;;;;;;;18.83;53.49;95225.50;4998225;28;20317;-67
2023/05/06 05:36:45;;;;;;;14.30;12.27;;;;;;;19.18;52.44;95230.97;4996253;28;20294;-68
2023/05/06 05:39:13;;;;;;;10.00;8.95;;;;;;;19.25;52.42;95227.09;4996729;28;20296;-68
2023/05/06 05:41:39;;;;;;;10.23;9.02;;;;;;;19.17;52.12;95225.94;4996983;28;20301;-68
2023/05/06 05:44:06;;;;;;;17.08;13.80;;;;;;;18.96;52.46;95221.22;4996115;28;20416;-68
2023/05/06 05:46:33;;;;;;;14.20;11.27;;;;;;;18.63;53.48;95224.19;4996957;28;20226;-68
2023/05/06 05:48:59;;;;;;;13.95;10.38;;;;;;;18.20;54.73;95220.00;4996147;28;20666;-69
2023/05/06 05:51:26;;;;;;;11.18;10.07;;;;;;;17.94;55.22;95222.41;4996259;28;20274;-69
2023/05/06 05:53:53;;;;;;;12.15;11.00;;;;;;;17.43;56.62;95228.00;4994522;28;20295;-68
2023/05/06 05:56:21;;;;;;;15.55;13.95;;;;;;;17.13;57.42;95230.56;4995171;28;20334;-68
2023/05/06 05:58:47;;;;;;;18.92;12.50;;;;;;;17.04;57.84;95226.78;4998689;28;21614;-68
2023/05/06 06:01:14;;;;;;;12.20;11.10;;;;;;;16.87;58.68;95235.41;4998875;28;20317;-67
2023/05/06 06:03:41;;;;;;;15.20;12.95;;;;;;;16.81;59.26;95234.94;4996479;28;21027;-68
2023/05/06 06:06:08;;;;;;;19.23;14.23;;;;;;;16.85;59.41;95234.66;4998539;28;21594;-68
2023/05/06 06:08:35;;;;;;;13.45;10.95;;;;;;;16.77;59.92;95244.56;4997925;28;20294;-68
2023/05/06 06:11:03;;;;;;;18.35;12.30;;;;;;;16.87;59.69;95248.25;4994456;28;20295;-68
2023/05/06 06:13:31;;;;;;;24.95;15.40;;;;;;;16.96;59.60;95245.19;4998655;28;20205;-69
2023/05/06 06:15:58;;;;;;;23.30;14.20;;;;;;;16.91;59.42;95242.03;4997728;28;20342;-66
2023/05/06 06:18:25;;;;;;;19.83;11.48;;;;;;;16.95;59.51;95248.66;4996388;28;20298;-68
2023/05/06 06:20:51;;;;;;;15.07;11.07;;;;;;;16.99;59.44;95245.03;4997152;28;20231;-68
2023/05/06 06:23:18;;;;;;;18.55;14.75;;;;;;;17.13;59.45;95244.22;4997498;28;20258;-68
2023/05/06 06:25:45;;;;;;;10.45;9.30;;;;;;;17.33;59.09;95238.78;4995614;28;20211;-69
2023/05/06 06:28:11;;;;;;;21.90;9.35;;;;;;;17.36;57.97;95240.34;4996913;28;20199;-69
2023/05/06 06:30:39;;;;;;;18.38;14.52;;;;;;;17.31;58.40;95245.78;4996076;28;20231;-69
2023/05/06 06:33:06;;;;;;;17.88;12.57;;;;;;;17.42;58.78;95245.16;4995356;28;20290;-68
2023/05/06 06:35:33;;;;;;;15.73;12.13;;;;;;;17.56;58.66;95240.06;4996213;28;20221;-68
2023/05/06 06:38:00;;;;;;;39.38;27.92;;;;;;;17.75;58.00;95237.28;4996523;28;20373;-68
2023/05/06 06:40:27;;;;;;;9.35;8.65;;;;;;;17.58;57.09;95237.38;4993586;28;20215;-69
2023/05/06 06:42:53;;;;;;;11.68;9.23;;;;;;;16.61;59.09;95248.81;4995639;28;20306;-69
2023/05/06 06:45:21;;;;;;;9.57;8.57;;;;;;;16.17;61.25;95246.06;4998306;28;20741;-69
2023/05/06 06:47:49;;;;;;;10.65;8.32;;;;;;;16.12;61.24;95248.84;4996216;28;20207;-66
2023/05/06 06:50:15;;;;;;;8.63;7.82;;;;;;;15.90;62.16;95250.88;4996062;28;20273;-68
2023/05/06 06:52:42;;;;;;;11.05;8.02;;;;;;;15.76;62.29;95248.22;4996497;28;20203;-69
2023/05/06 06:55:09;;;;;;;10.00;9.05;;;;;;;15.86;62.74;95262.19;4995502;28;21036;-69
2023/05/06 06:57:37;;;;;;;9.57;8.68;;;;;;;15.90;62.53;95256.00;4997685;28;20261;-68
2023/05/06 07:00:04;;;;;;;9.60;8.80;;;;;;;16.33;61.78;95255.41;4995535;28;20663;-67
2023/05/06 07:02:30;;;;;;;8.02;7.32;;;;;;;16.56;60.61;95259.34;4996905;28;20852;-69
2023/05/06 07:04:58;;;;;;;8.35;7.85;;;;;;;16.49;60.52;95262.31;4998681;28;20293;-69
2023/05/06 07:07:25;;;;;;;9.05;8.25;;;;;;;16.03;61.63;95259.63;4996422;28;20203;-69
2023/05/06 07:09:52;;;;;;;8.75;7.65;;;;;;;16.13;61.82;95263.34;4996122;28;21299;-68
2023/05/06 07:12:18;;;;;;;9.35;8.43;;;;;;;16.18;61.88;95257.97;4995754;28;20692;-68
2023/05/06 07:14:45;;;;;;;9.90;8.02;;;;;;;16.41;61.43;95262.72;4995538;28;20235;-68
2023/05/06 07:17:12;;;;;;;11.63;7.65;;;;;;;16.26;62.00;95269.50;4996359;28;20294;-70
2023/05/06 07:19:38;;;;;;;14.65;9.55;;;;;;;16.32;61.70;95269.19;4995432;28;20303;-68
2023/05/06 07:22:09;;;;;;;10.88;9.23;;;;;;;16.20;62.53;95263.84;4995360;28;20848;-67
2023/05/06 07:24:35;;;;;;;10.85;9.45;;;;;;;16.25;62.82;95262.72;4996920;28;20234;-67
2023/05/06 07:27:03;;;;;;;9.68;8.77;;;;;;;16.55;61.88;95267.13;4997298;28;20712;-67
2023/05/06 07:29:29;;;;;;;10.30;8.10;;;;;;;16.88;60.68;95262.75;4996579;28;20203;-68
2023/05/06 07:31:56;;;;;;;9.02;8.23;;;;;;;17.07;60.65;95265.16;4996700;28;20204;-68
2023/05/06 07:34:23;;;;;;;8.20;7.50;;;;;;;17.54;59.57;95262.44;4998029;28;20281;-68
2023/05/06 07:36:49;;;;;;;8.32;7.63;;;;;;;18.01;57.26;95269.97;4999456;28;20248;-68
2023/05/06 07:39:17;;;;;;;8.65;7.75;;;;;;;18.46;56.42;95270.69;4999052;28;20235;-68
2023/05/06 07:41:44;;;;;;;8.32;7.30;;;;;;;18.53;55.62;95263.44;5001433;28;20333;-69
2023/05/06 07:44:11;;;;;;;7.25;6.60;;;;;;;18.62;55.42;95273.19;5003003;28;20231;-68
2023/05/06 07:46:38;;;;;;;7.82;7.22;;;;;;;19.06;54.63;95272.97;4998901;28;20740;-68
2023/05/06 07:49:05;;;;;;;8.00;7.13;;;;;;;19.87;53.14;95265.16;5001079;28;20211;-69
2023/05/06 07:51:31;;;;;;;7.05;6.32;;;;;;;20.63;50.61;95265.94;5001337;28;20336;-67
2023/05/06 07:53:58;;;;;;;7.20;6.50;;;;;;;21.84;47.69;95262.38;5002349;28;20301;-68
2023/05/06 07:56:26;;;;;;;6.18;5.70;;;;;;;22.02;46.21;95268.81;5006582;28;21990;-69
2023/05/06 07:58:53;;;;;;;8.07;5.80;;;;;;;22.89;44.69;95260.31;5000101;28;20208;-68
2023/05/06 08:01:20;;;;;;;8.95;5.70;;;;;;;24.04;43.08;95259.59;5002477;28;20313;-68
2023/05/06 08:03:47;;;;;;;6.35;5.85;;;;;;;26.27;38.84;95251.19;5007399;28;20310;-70
2023/05/06 08:06:13;;;;;;;6.63;6.22;;;;;;;27.46;35.02;95251.16;5009054;28;20269;-69
2023/05/06 08:08:40;;;;;;;7.68;6.10;;;;;;;27.17;35.09;95250.53;5003211;28;20762;-69
2023/05/06 08:11:07;;;;;;;6.68;5.68;;;;;;;27.55;34.42;95250.25;5004878;28;20288;-69
2023/05/06 08:13:35;;;;;;;6.68;6.18;;;;;;;28.16;34.03;95248.59;5005435;28;20273;-69
2023/05/06 08:16:02;;;;;;;4.63;4.32;;;;;;;29.19;30.75;95248.44;5007663;28;20207;-69
2023/05/06 08:18:29;;;;;;;5.30;4.90;;;;;;;29.21;31.08;95241.22;5006068;28;21083;-71
2023/05/06 08:20:55;;;;;;;7.32;4.82;;;;;;;28.52;31.53;95250.13;5004988;28;20208;-69
2023/05/06 08:23:22;;;;;;;6.38;4.40;;;;;;;27.96;33.53;95251.41;5007891;28;20340;-69
2023/05/06 08:25:49;;;;;;;5.68;4.53;;;;;;;28.84;32.04;95246.84;5009206;28;20641;-71
2023/05/06 08:28:16;;;;;;;7.13;4.40;;;;;;;30.65;29.55;95247.56;5005273;28;21219;-70
2023/05/06 08:30:46;;;;;;;4.60;4.20;;;;;;;31.16;28.73;95254.09;5003424;28;20234;-69
2023/05/06 08:33:13;;;;;;;4.57;4.28;;;;;;;30.75;28.70;95246.38;5001511;28;20330;-69
2023/05/06 08:35:39;;;;;;;5.50;5.10;;;;;;;30.56;28.94;95244.16;5001205;28;20306;-69
2023/05/06 08:38:06;;;;;;;4.93;4.63;;;;;;;27.56;33.03;95244.03;5000289;28;20476;-69
2023/05/06 08:40:33;;;;;;;4.78;4.38;;;;;;;28.71;32.17;95254.28;5003023;28;20212;-70
2023/05/06 08:43:02;;;;;;;4.55;3.95;;;;;;;31.97;28.18;95234.28;4998775;28;20318;-68
2023/05/06 08:45:29;;;;;;;4.10;3.75;;;;;;;35.56;23.25;95237.19;4997795;28;20570;-69
2023/05/06 08:47:57;;;;;;;10.93;3.95;;;;;;;37.10;21.56;95233.16;4996284;28;20661;-69
2023/05/06 08:50:25;;;;;;;4.47;4.18;;;;;;;38.08;20.81;95232.75;4997965;28;20331;-69
2023/05/06 08:52:52;;;;;;;3.88;3.58;;;;;;;39.41;19.95;95232.94;5000025;28;20321;-70
2023/05/06 08:55:19;;;;;;;4.78;4.28;;;;;;;40.15;18.25;95225.50;4997417;28;20362;-68
2023/05/06 08:57:47;;;;;;;3.97;3.67;;;;;;;34.71;22.78;95212.06;4999516;28;20732;-69
2023/05/06 09:00:15;;;;;;;4.22;4.03;;;;;;;30.98;26.79;95222.81;4999441;28;21488;-69
2023/05/06 09:02:42;;;;;;;3.92;3.72;;;;;;;29.36;29.36;95221.28;5001622;28;20659;-70
2023/05/06 09:05:12;;;;;;;4.75;4.45;;;;;;;30.39;28.70;95211.91;5001251;28;20954;-69
2023/05/06 09:07:38;;;;;;;4.10;3.75;;;;;;;32.50;26.35;95212.22;5003744;28;20317;-69
2023/05/06 09:10:07;;;;;;;4.00;3.72;;;;;;;33.49;24.96;95209.94;5003033;28;20294;-69
2023/05/06 09:12:37;;;;;;;6.03;3.72;;;;;;;33.69;24.78;95195.13;5001874;28;20237;-70
2023/05/06 09:15:05;;;;;;;4.88;4.15;;;;;;;32.65;25.44;95201.72;5003626;28;20199;-69
2023/05/06 09:17:32;;;;;;;4.43;4.03;;;;;;;29.59;28.29;95208.41;5003240;28;20301;-69
2023/05/06 09:19:59;;;;;;;4.53;3.60;;;;;;;25.82;35.21;95210.19;5000583;28;20298;-70
2023/05/06 09:22:28;;;;;;;4.53;4.30;;;;;;;25.08;36.41;95207.34;4995924;28;20207;-72
2023/05/06 09:24:56;;;;;;;4.07;3.72;;;;;;;26.55;34.57;95198.16;4990137;28;20306;-70
2023/05/06 09:27:24;;;;;;;4.30;4.00;;;;;;;28.73;31.83;95189.56;4997843;28;20207;-70
2023/05/06 09:30:02;;;;;;;4.20;3.97;;;;;;;28.28;31.02;95188.09;4999851;28;20285;-71
2023/05/06 09:32:29;;;;;;;5.18;4.70;;;;;;;27.21;32.99;95178.84;5006090;28;20571;-71
2023/05/06 09:34:56;;;;;;;6.13;4.05;;;;;;;26.29;34.45;95184.13;4999206;28;20791;-69
2023/05/06 09:37:25;;;;;;;7.43;4.05;;;;;;;24.52;38.36;95191.47;4991539;28;20274;-68
2023/05/06 09:39:55;;;;;;;4.78;4.45;;;;;;;23.61;39.91;95190.53;4992152;28;20207;-71
2023/05/06 09:42:24;;;;;;;6.40;5.47;;;;;;;23.59;40.66;95189.00;4993430;28;20203;-70
2023/05/06 09:44:53;;;;;;;5.28;4.90;;;;;;;22.46;42.53;95189.50;4991225;28;20226;-71
2023/05/06 09:47:21;;;;;;;4.78;4.38;;;;;;;22.01;43.82;95186.94;4998600;28;20200;-74
2023/05/06 09:49:48;;;;;;;6.53;5.47;;;;;;;22.38;43.28;95183.13;4997024;28;20208;-68
2023/05/06 09:52:15;;;;;;;4.47;4.18;;;;;;;22.26;42.99;95184.09;4991481;28;20215;-67
2023/05/06 09:54:43;;;;;;;5.30;5.00;;;;;;;22.30;42.59;95184.66;4989172;28;20227;-66
2023/05/06 09:57:14;;;;;;;6.05;5.63;;;;;;;22.22;43.39;95182.69;4990186;28;20258;-64
2023/05/06 09:59:43;;;;;;;4.38;4.07;;;;;;;21.96;43.10;95176.91;4990266;28;20241;-64
2023/05/06 10:02:11;;;;;;;5.68;5.07;;;;;;;21.88;43.67;95178.41;4989888;28;20346;-64
2023/05/06 10:04:40;;;;;;;5.47;5.07;;;;;;;21.31;45.22;95184.41;4988761;28;20314;-64
2023/05/06 10:07:08;;;;;;;5.00;4.57;;;;;;;21.12;45.91;95184.09;4989062;28;20216;-65
2023/05/06 10:09:37;;;;;;;4.30;4.10;;;;;;;21.11;45.78;95183.28;4989406;28;20699;-65
2023/05/06 10:12:05;;;;;;;4.68;4.32;;;;;;;20.88;46.17;95190.13;4989730;28;20290;-65
2023/05/06 10:14:33;;;;;;;4.57;4.07;;;;;;;20.82;46.05;95180.22;4988599;28;20208;-64
2023/05/06 10:17:00;;;;;;;4.88;4.47;;;;;;;21.00;46.00;95176.31;4992161;28;20273;-64
2023/05/06 10:19:28;;;;;;;4.68;4.43;;;;;;;21.21;45.56;95173.13;4989818;28;20204;-65
2023/05/06 10:22:01;;;;;;;4.32;3.95;;;;;;;21.22;45.45;95170.44;4990900;28;20235;-65
2023/05/06 10:24:36;;;;;;;5.43;4.93;;;;;;;20.99;46.62;95179.84;4990586;28;20313;-64
2023/05/06 10:27:06;;;;;;;5.25;4.75;;;;;;;20.79;46.37;95182.22;4990032;28;20342;-65
2023/05/06 10:29:36;;;;;;;5.88;5.00;;;;;;;20.63;47.25;95177.31;4987610;28;20768;-64
2023/05/06 10:32:04;;;;;;;6.13;5.72;;;;;;;20.55;47.96;95185.59;4990422;28;20366;-65
2023/05/06 10:34:38;;;;;;;14.13;4.63;;;;;;;20.57;48.24;95180.31;4992886;28;20200;-64
2023/05/06 10:37:06;;;;;;;6.15;4.90;;;;;;;20.51;46.58;95178.19;4989889;28;20774;-65
2023/05/06 10:39:33;;;;;;;4.38;4.07;;;;;;;20.66;46.63;95172.75;4989691;28;20234;-65
2023/05/06 10:42:00;;;;;;;4.60;4.30;;;;;;;21.10;44.76;95171.28;4991356;28;20286;-65
2023/05/06 10:45:02;;;;;;;5.68;4.47;;;;;;;21.54;44.11;95169.78;4990579;28;20672;-65
2023/05/06 10:47:49;;;;;;;7.45;5.50;;;;;;;21.84;43.19;95171.81;4989021;28;20263;-65
2023/05/06 10:50:20;;;;;;;4.22;3.65;;;;;;;22.41;42.65;95166.53;4987999;28;20350;-64
2023/05/06 10:52:48;;;;;;;4.20;3.90;;;;;;;23.16;40.75;95171.75;4990204;28;20202;-65
2023/05/06 10:55:32;;;;;;;5.95;4.45;;;;;;;22.93;40.28;95173.63;4989276;28;20684;-64
2023/05/06 10:58:02;;;;;;;4.30;4.00;;;;;;;22.53;40.64;95165.56;4988484;28;20326;-64
2023/05/06 11:00:33;;;;;;;4.55;3.85;;;;;;;21.76;41.62;95167.25;4986020;28;20322;-64
2023/05/06 11:03:05;;;;;;;4.32;3.97;;;;;;;21.27;43.83;95175.28;4991522;28;20310;-65
2023/05/06 11:05:32;;;;;;;4.05;3.85;;;;;;;21.29;44.00;95161.28;4992191;28;20330;-65
2023/05/06 11:08:09;;;;;;;4.40;4.10;;;;;;;21.17;43.18;95166.50;4991809;28;20337;-63
2023/05/06 11:10:36;;;;;;;4.22;3.83;;;;;;;21.03;43.55;95170.91;4990015;28;20663;-65
2023/05/06 11:13:21;;;;;;;6.65;3.83;;;;;;;21.00;43.74;95171.16;4996492;28;20298;-65
2023/05/06 11:15:50;;;;;;;5.18;4.70;;;;;;;21.04;43.30;95161.41;4994298;28;20238;-66
2023/05/06 11:18:42;;;;;;;3.30;3.10;;;;;;;21.10;42.52;95154.97;4994554;28;20226;-65
2023/05/06 11:21:40;;;;;;;4.15;3.85;;;;;;;21.39;42.55;95159.66;4993075;28;20302;-66
2023/05/06 11:24:08;;;;;;;4.35;3.88;;;;;;;21.74;40.40;95156.19;4994214;28;20278;-64
2023/05/06 11:26:35;;;;;;;3.55;3.25;;;;;;;21.75;37.67;95163.03;4996563;28;21309;-64
2023/05/06 11:29:03;;;;;;;4.80;4.40;;;;;;;21.54;37.38;95149.91;4993631;28;20648;-65
2023/05/06 11:31:38;;;;;;;3.67;3.13;;;;;;;21.69;37.07;95159.13;4993491;28;20215;-66